Terminal Aerodrome Forecast
Issued by NWS

Home | Current Version | Previous Version | Text Only | Print | Product List | Glossary On
Versions: 1 2 3 4 5 6 7 8 9 10 11 12 13 14 15 16 17 18
000
FTUS45 KBOU 280154 AAA
TAFBJC
TAF AMD
KBJC 280154Z 2802/2824 VRB04KT P6SM VCSH SCT030 BKN040 OVC080
      TEMPO 2802/2804 -SHRA BKN030
     FM280400 09006KT P6SM VCSH SCT035 OVC050
      TEMPO 2805/2809 BKN030
     FM280900 34006KT 3SM BR SCT008 OVC015
     FM281100 29006KT 1SM BR SCT004 OVC008
      TEMPO 2811/2815 1/2SM FG VV004
     FM281500 34008KT P6SM VCSH SCT008 OVC015
     FM282000 01008KT P6SM VCSH SCT008 OVC012
      TEMPO 2820/2824 03012G18KT 3SM -SHRA OVC008=

USA.gov is the U.S. government's official web portal to all federal, state and local government web resources and services.